sensor_id;sensor_type;location;lat;lon;timestamp;P1;durP1;ratioP1;P2;durP2;ratioP2
65533;SDS011;53640;55.838;37.184;2023-03-26T00:00:20;11.65;;;7.63;;
65533;SDS011;53640;55.838;37.184;2023-03-26T00:07:37;11.45;;;7.63;;
65533;SDS011;53640;55.838;37.184;2023-03-26T00:36:43;8.60;;;6.38;;
65533;SDS011;53640;55.838;37.184;2023-03-26T00:39:36;11.30;;;7.10;;
65533;SDS011;53640;55.838;37.184;2023-03-26T00:42:14;9.20;;;6.50;;
65533;SDS011;53640;55.838;37.184;2023-03-26T00:45:10;5.32;;;4.53;;
65533;SDS011;53640;55.838;37.184;2023-03-26T00:55:53;7.90;;;5.63;;
65533;SDS011;53640;55.838;37.184;2023-03-26T01:02:30;8.48;;;5.40;;
65533;SDS011;53640;55.838;37.184;2023-03-26T01:09:20;8.18;;;5.18;;
65533;SDS011;53640;55.838;37.184;2023-03-26T01:15:15;4.60;;;3.70;;
65533;SDS011;53640;55.838;37.184;2023-03-26T01:17:48;5.80;;;4.55;;
65533;SDS011;53640;55.838;37.184;2023-03-26T01:23:44;4.35;;;3.50;;
65533;SDS011;53640;55.838;37.184;2023-03-26T01:35:41;5.72;;;4.28;;
65533;SDS011;53640;55.838;37.184;2023-03-26T01:39:02;4.35;;;3.40;;
65533;SDS011;53640;55.838;37.184;2023-03-26T01:45:25;5.60;;;4.05;;
65533;SDS011;53640;55.838;37.184;2023-03-26T01:53:10;7.97;;;5.32;;
65533;SDS011;53640;55.838;37.184;2023-03-26T02:10:24;7.47;;;4.60;;
65533;SDS011;53640;55.838;37.184;2023-03-26T02:13:36;7.88;;;5.03;;
65533;SDS011;53640;55.838;37.184;2023-03-26T03:22:46;14.38;;;10.15;;
65533;SDS011;53640;55.838;37.184;2023-03-26T03:29:48;16.15;;;6.18;;
65533;SDS011;53640;55.838;37.184;2023-03-26T03:32:50;9.27;;;6.97;;
65533;SDS011;53640;55.838;37.184;2023-03-26T03:43:14;10.10;;;7.35;;
65533;SDS011;53640;55.838;37.184;2023-03-26T03:46:00;9.32;;;6.65;;
65533;SDS011;53640;55.838;37.184;2023-03-26T03:48:55;11.07;;;7.80;;
65533;SDS011;53640;55.838;37.184;2023-03-26T03:51:57;12.32;;;7.82;;
65533;SDS011;53640;55.838;37.184;2023-03-26T03:54:49;10.38;;;8.00;;
65533;SDS011;53640;55.838;37.184;2023-03-26T04:01:08;10.25;;;8.50;;
65533;SDS011;53640;55.838;37.184;2023-03-26T04:06:42;15.52;;;9.07;;
65533;SDS011;53640;55.838;37.184;2023-03-26T04:09:11;10.95;;;8.68;;
65533;SDS011;53640;55.838;37.184;2023-03-26T04:11:39;18.92;;;10.25;;
65533;SDS011;53640;55.838;37.184;2023-03-26T04:14:30;12.20;;;9.07;;
65533;SDS011;53640;55.838;37.184;2023-03-26T04:17:17;13.85;;;8.95;;
65533;SDS011;53640;55.838;37.184;2023-03-26T04:19:48;12.80;;;9.68;;
65533;SDS011;53640;55.838;37.184;2023-03-26T04:22:29;12.65;;;9.50;;
65533;SDS011;53640;55.838;37.184;2023-03-26T04:25:07;14.85;;;9.55;;
65533;SDS011;53640;55.838;37.184;2023-03-26T04:32:33;13.07;;;10.18;;
65533;SDS011;53640;55.838;37.184;2023-03-26T04:38:45;12.73;;;9.75;;
65533;SDS011;53640;55.838;37.184;2023-03-26T04:41:45;11.75;;;8.60;;
65533;SDS011;53640;55.838;37.184;2023-03-26T04:57:39;12.45;;;10.32;;
65533;SDS011;53640;55.838;37.184;2023-03-26T05:00:20;14.68;;;10.55;;
65533;SDS011;53640;55.838;37.184;2023-03-26T05:03:01;18.15;;;11.45;;
65533;SDS011;53640;55.838;37.184;2023-03-26T05:05:33;12.88;;;10.10;;
65533;SDS011;53640;55.838;37.184;2023-03-26T05:08:11;12.93;;;10.63;;
65533;SDS011;53640;55.838;37.184;2023-03-26T05:10:37;17.80;;;11.10;;
65533;SDS011;53640;55.838;37.184;2023-03-26T05:13:10;15.85;;;11.45;;
65533;SDS011;53640;55.838;37.184;2023-03-26T05:15:41;14.10;;;10.55;;
65533;SDS011;53640;55.838;37.184;2023-03-26T05:18:12;13.90;;;8.88;;
65533;SDS011;53640;55.838;37.184;2023-03-26T05:20:44;14.35;;;10.50;;
65533;SDS011;53640;55.838;37.184;2023-03-26T05:23:11;19.25;;;12.45;;
65533;SDS011;53640;55.838;37.184;2023-03-26T05:25:47;14.88;;;11.10;;
65533;SDS011;53640;55.838;37.184;2023-03-26T05:28:19;13.32;;;9.93;;
65533;SDS011;53640;55.838;37.184;2023-03-26T05:31:10;19.27;;;11.23;;
65533;SDS011;53640;55.838;37.184;2023-03-26T05:33:39;14.65;;;10.93;;
65533;SDS011;53640;55.838;37.184;2023-03-26T05:36:11;15.35;;;11.60;;
65533;SDS011;53640;55.838;37.184;2023-03-26T05:38:46;17.92;;;11.45;;
65533;SDS011;53640;55.838;37.184;2023-03-26T05:41:40;19.90;;;12.48;;
65533;SDS011;53640;55.838;37.184;2023-03-26T05:44:23;16.15;;;12.05;;
65533;SDS011;53640;55.838;37.184;2023-03-26T05:47:15;21.13;;;13.10;;
65533;SDS011;53640;55.838;37.184;2023-03-26T05:49:43;20.55;;;14.15;;
65533;SDS011;53640;55.838;37.184;2023-03-26T05:52:11;19.77;;;13.82;;
65533;SDS011;53640;55.838;37.184;2023-03-26T05:55:23;21.13;;;14.18;;
65533;SDS011;53640;55.838;37.184;2023-03-26T05:58:50;17.88;;;13.45;;
65533;SDS011;53640;55.838;37.184;2023-03-26T06:01:53;17.63;;;12.30;;
65533;SDS011;53640;55.838;37.184;2023-03-26T06:04:49;16.17;;;11.25;;
65533;SDS011;53640;55.838;37.184;2023-03-26T06:07:46;17.42;;;12.70;;
65533;SDS011;53640;55.838;37.184;2023-03-26T06:10:18;22.35;;;14.27;;
65533;SDS011;53640;55.838;37.184;2023-03-26T06:12:45;17.30;;;11.75;;
65533;SDS011;53640;55.838;37.184;2023-03-26T06:15:12;17.73;;;12.32;;
65533;SDS011;53640;55.838;37.184;2023-03-26T06:18:12;21.80;;;14.93;;
65533;SDS011;53640;55.838;37.184;2023-03-26T06:26:02;17.65;;;13.27;;
65533;SDS011;53640;55.838;37.184;2023-03-26T06:28:52;16.35;;;11.57;;
65533;SDS011;53640;55.838;37.184;2023-03-26T06:31:46;19.42;;;13.23;;
65533;SDS011;53640;55.838;37.184;2023-03-26T06:34:22;21.90;;;13.50;;
65533;SDS011;53640;55.838;37.184;2023-03-26T06:36:54;17.98;;;12.68;;
65533;SDS011;53640;55.838;37.184;2023-03-26T06:39:53;16.17;;;12.40;;
65533;SDS011;53640;55.838;37.184;2023-03-26T06:42:38;20.23;;;14.23;;
65533;SDS011;53640;55.838;37.184;2023-03-26T06:45:23;21.00;;;14.52;;
65533;SDS011;53640;55.838;37.184;2023-03-26T06:48:16;21.73;;;14.15;;
65533;SDS011;53640;55.838;37.184;2023-03-26T06:50:56;25.15;;;15.45;;
65533;SDS011;53640;55.838;37.184;2023-03-26T06:53:43;25.05;;;16.40;;
65533;SDS011;53640;55.838;37.184;2023-03-26T06:56:33;22.85;;;15.27;;
65533;SDS011;53640;55.838;37.184;2023-03-26T06:59:51;24.50;;;17.08;;
65533;SDS011;53640;55.838;37.184;2023-03-26T07:02:41;40.35;;;18.10;;
65533;SDS011;53640;55.838;37.184;2023-03-26T07:06:04;28.13;;;17.45;;
65533;SDS011;53640;55.838;37.184;2023-03-26T07:09:12;29.88;;;17.70;;
65533;SDS011;53640;55.838;37.184;2023-03-26T07:11:57;24.17;;;15.07;;
65533;SDS011;53640;55.838;37.184;2023-03-26T07:14:53;31.30;;;18.23;;
65533;SDS011;53640;55.838;37.184;2023-03-26T07:20:30;27.42;;;16.33;;
65533;SDS011;53640;55.838;37.184;2023-03-26T07:22:57;33.03;;;18.13;;
65533;SDS011;53640;55.838;37.184;2023-03-26T07:25:53;37.80;;;19.42;;
65533;SDS011;53640;55.838;37.184;2023-03-26T07:29:09;33.88;;;18.15;;
65533;SDS011;53640;55.838;37.184;2023-03-26T07:31:44;44.97;;;21.13;;
65533;SDS011;53640;55.838;37.184;2023-03-26T07:34:42;36.03;;;17.40;;
65533;SDS011;53640;55.838;37.184;2023-03-26T07:38:15;30.15;;;16.48;;
65533;SDS011;53640;55.838;37.184;2023-03-26T07:47:40;27.38;;;15.95;;
65533;SDS011;53640;55.838;37.184;2023-03-26T07:50:22;28.25;;;14.98;;
65533;SDS011;53640;55.838;37.184;2023-03-26T07:53:16;27.88;;;15.38;;
65533;SDS011;53640;55.838;37.184;2023-03-26T07:56:00;24.13;;;15.15;;
65533;SDS011;53640;55.838;37.184;2023-03-26T08:17:59;28.35;;;14.73;;
65533;SDS011;53640;55.838;37.184;2023-03-26T08:20:59;51.08;;;19.90;;
65533;SDS011;53640;55.838;37.184;2023-03-26T08:23:34;31.05;;;15.43;;
65533;SDS011;53640;55.838;37.184;2023-03-26T08:31:37;21.40;;;12.40;;
65533;SDS011;53640;55.838;37.184;2023-03-26T08:34:08;20.85;;;11.65;;
65533;SDS011;53640;55.838;37.184;2023-03-26T08:36:36;19.02;;;10.80;;
65533;SDS011;53640;55.838;37.184;2023-03-26T08:39:03;12.45;;;8.18;;
65533;SDS011;53640;55.838;37.184;2023-03-26T08:41:38;15.63;;;9.57;;
65533;SDS011;53640;55.838;37.184;2023-03-26T09:00:57;17.27;;;11.32;;
65533;SDS011;53640;55.838;37.184;2023-03-26T09:03:36;12.88;;;8.32;;
65533;SDS011;53640;55.838;37.184;2023-03-26T09:15:08;12.75;;;8.73;;
65533;SDS011;53640;55.838;37.184;2023-03-26T09:38:00;8.57;;;6.60;;
65533;SDS011;53640;55.838;37.184;2023-03-26T10:21:07;7.30;;;6.35;;
65533;SDS011;53640;55.838;37.184;2023-03-26T10:35:38;9.30;;;7.10;;
65533;SDS011;53640;55.838;37.184;2023-03-26T10:41:49;8.85;;;6.28;;
65533;SDS011;53640;55.838;37.184;2023-03-26T10:48:25;7.90;;;6.50;;
65533;SDS011;53640;55.838;37.184;2023-03-26T10:57:27;8.63;;;7.35;;
65533;SDS011;53640;55.838;37.184;2023-03-26T11:03:13;9.02;;;6.35;;
65533;SDS011;53640;55.838;37.184;2023-03-26T11:15:43;7.90;;;6.80;;
65533;SDS011;53640;55.838;37.184;2023-03-26T11:19:15;6.05;;;5.10;;
65533;SDS011;53640;55.838;37.184;2023-03-26T11:38:20;7.13;;;5.40;;
65533;SDS011;53640;55.838;37.184;2023-03-26T11:41:40;3.65;;;3.28;;
65533;SDS011;53640;55.838;37.184;2023-03-26T11:44:56;4.03;;;3.60;;
65533;SDS011;53640;55.838;37.184;2023-03-26T11:52:20;3.53;;;3.00;;
65533;SDS011;53640;55.838;37.184;2023-03-26T11:59:29;3.20;;;2.90;;
65533;SDS011;53640;55.838;37.184;2023-03-26T12:02:30;4.30;;;3.92;;
65533;SDS011;53640;55.838;37.184;2023-03-26T12:05:45;6.53;;;5.53;;
65533;SDS011;53640;55.838;37.184;2023-03-26T12:09:43;5.20;;;4.70;;
65533;SDS011;53640;55.838;37.184;2023-03-26T12:19:16;6.70;;;5.72;;
65533;SDS011;53640;55.838;37.184;2023-03-26T12:21:56;7.20;;;6.18;;
65533;SDS011;53640;55.838;37.184;2023-03-26T12:24:48;7.53;;;6.65;;
65533;SDS011;53640;55.838;37.184;2023-03-26T12:27:34;9.40;;;7.47;;
65533;SDS011;53640;55.838;37.184;2023-03-26T12:30:09;9.82;;;6.90;;
65533;SDS011;53640;55.838;37.184;2023-03-26T12:32:47;10.70;;;7.63;;
65533;SDS011;53640;55.838;37.184;2023-03-26T12:35:16;9.60;;;7.25;;
65533;SDS011;53640;55.838;37.184;2023-03-26T12:37:47;9.97;;;7.70;;
65533;SDS011;53640;55.838;37.184;2023-03-26T12:43:39;10.82;;;8.30;;
65533;SDS011;53640;55.838;37.184;2023-03-26T12:46:33;10.38;;;8.15;;
65533;SDS011;53640;55.838;37.184;2023-03-26T12:49:08;10.00;;;8.10;;
65533;SDS011;53640;55.838;37.184;2023-03-26T12:51:50;9.27;;;8.10;;
65533;SDS011;53640;55.838;37.184;2023-03-26T12:57:24;10.35;;;7.82;;
65533;SDS011;53640;55.838;37.184;2023-03-26T13:00:04;8.55;;;7.07;;
65533;SDS011;53640;55.838;37.184;2023-03-26T13:05:33;13.57;;;8.95;;
65533;SDS011;53640;55.838;37.184;2023-03-26T13:13:45;11.00;;;8.38;;
65533;SDS011;53640;55.838;37.184;2023-03-26T13:19:19;13.57;;;9.20;;
65533;SDS011;53640;55.838;37.184;2023-03-26T13:31:26;13.85;;;9.73;;
65533;SDS011;53640;55.838;37.184;2023-03-26T13:43:31;14.80;;;10.05;;
65533;SDS011;53640;55.838;37.184;2023-03-26T13:48:59;14.93;;;9.18;;
65533;SDS011;53640;55.838;37.184;2023-03-26T13:55:13;12.60;;;9.70;;
65533;SDS011;53640;55.838;37.184;2023-03-26T13:57:50;13.93;;;10.30;;
65533;SDS011;53640;55.838;37.184;2023-03-26T14:03:26;14.13;;;9.27;;
65533;SDS011;53640;55.838;37.184;2023-03-26T14:06:30;12.80;;;8.65;;
65533;SDS011;53640;55.838;37.184;2023-03-26T14:09:28;10.77;;;8.65;;
65533;SDS011;53640;55.838;37.184;2023-03-26T14:12:26;9.85;;;7.60;;
65533;SDS011;53640;55.838;37.184;2023-03-26T14:52:53;10.88;;;7.80;;
65533;SDS011;53640;55.838;37.184;2023-03-26T15:18:02;6.90;;;6.20;;
65533;SDS011;53640;55.838;37.184;2023-03-26T15:40:33;5.70;;;5.10;;
65533;SDS011;53640;55.838;37.184;2023-03-26T15:43:23;6.10;;;5.47;;
65533;SDS011;53640;55.838;37.184;2023-03-26T15:52:24;6.30;;;5.50;;
65533;SDS011;53640;55.838;37.184;2023-03-26T16:04:42;7.75;;;6.15;;
65533;SDS011;53640;55.838;37.184;2023-03-26T16:07:55;6.72;;;5.57;;
65533;SDS011;53640;55.838;37.184;2023-03-26T16:10:56;6.38;;;5.70;;
65533;SDS011;53640;55.838;37.184;2023-03-26T16:15:54;8.15;;;6.80;;
65533;SDS011;53640;55.838;37.184;2023-03-26T16:18:42;8.13;;;6.10;;
65533;SDS011;53640;55.838;37.184;2023-03-26T16:26:22;8.02;;;6.40;;
65533;SDS011;53640;55.838;37.184;2023-03-26T16:32:16;6.13;;;5.40;;
65533;SDS011;53640;55.838;37.184;2023-03-26T16:35:01;8.85;;;5.53;;
65533;SDS011;53640;55.838;37.184;2023-03-26T16:40:49;6.40;;;5.53;;
65533;SDS011;53640;55.838;37.184;2023-03-26T16:52:06;7.18;;;5.82;;
65533;SDS011;53640;55.838;37.184;2023-03-26T16:57:40;8.68;;;6.18;;
65533;SDS011;53640;55.838;37.184;2023-03-26T17:05:19;9.43;;;7.13;;
65533;SDS011;53640;55.838;37.184;2023-03-26T17:08:19;7.38;;;6.50;;
65533;SDS011;53640;55.838;37.184;2023-03-26T17:13:42;8.63;;;6.30;;
65533;SDS011;53640;55.838;37.184;2023-03-26T17:16:34;6.97;;;5.70;;
65533;SDS011;53640;55.838;37.184;2023-03-26T17:19:13;7.82;;;6.03;;
65533;SDS011;53640;55.838;37.184;2023-03-26T17:21:51;8.32;;;7.10;;
65533;SDS011;53640;55.838;37.184;2023-03-26T17:24:38;8.02;;;6.82;;
65533;SDS011;53640;55.838;37.184;2023-03-26T17:27:46;7.82;;;6.47;;
65533;SDS011;53640;55.838;37.184;2023-03-26T17:33:36;6.28;;;5.50;;
65533;SDS011;53640;55.838;37.184;2023-03-26T17:45:22;5.53;;;5.03;;
65533;SDS011;53640;55.838;37.184;2023-03-26T17:49:07;6.25;;;5.32;;
65533;SDS011;53640;55.838;37.184;2023-03-26T17:52:10;5.43;;;4.55;;
65533;SDS011;53640;55.838;37.184;2023-03-26T17:55:37;5.88;;;4.60;;
65533;SDS011;53640;55.838;37.184;2023-03-26T17:58:21;6.45;;;4.57;;
65533;SDS011;53640;55.838;37.184;2023-03-26T18:03:57;10.77;;;6.82;;
65533;SDS011;53640;55.838;37.184;2023-03-26T18:12:12;10.48;;;7.35;;
65533;SDS011;53640;55.838;37.184;2023-03-26T18:18:58;13.73;;;8.57;;
65533;SDS011;53640;55.838;37.184;2023-03-26T18:21:29;13.65;;;8.75;;
65533;SDS011;53640;55.838;37.184;2023-03-26T18:24:01;14.75;;;8.98;;
65533;SDS011;53640;55.838;37.184;2023-03-26T18:26:37;16.63;;;9.13;;
65533;SDS011;53640;55.838;37.184;2023-03-26T18:29:11;21.60;;;8.85;;
65533;SDS011;53640;55.838;37.184;2023-03-26T18:31:55;81.75;;;11.45;;
65533;SDS011;53640;55.838;37.184;2023-03-26T18:34:57;19.05;;;10.30;;
65533;SDS011;53640;55.838;37.184;2023-03-26T18:37:47;21.83;;;8.55;;
65533;SDS011;53640;55.838;37.184;2023-03-26T18:40:24;17.88;;;9.70;;
65533;SDS011;53640;55.838;37.184;2023-03-26T18:42:55;34.58;;;11.35;;
65533;SDS011;53640;55.838;37.184;2023-03-26T18:45:38;23.95;;;10.15;;
65533;SDS011;53640;55.838;37.184;2023-03-26T18:48:09;28.33;;;11.63;;
65533;SDS011;53640;55.838;37.184;2023-03-26T19:52:11;11.98;;;8.20;;
65533;SDS011;53640;55.838;37.184;2023-03-26T19:54:44;19.83;;;9.02;;
65533;SDS011;53640;55.838;37.184;2023-03-26T19:57:16;16.63;;;9.75;;
65533;SDS011;53640;55.838;37.184;2023-03-26T19:59:42;14.35;;;9.43;;
65533;SDS011;53640;55.838;37.184;2023-03-26T20:02:11;13.48;;;8.48;;
65533;SDS011;53640;55.838;37.184;2023-03-26T20:04:40;12.25;;;8.07;;
65533;SDS011;53640;55.838;37.184;2023-03-26T20:07:14;10.88;;;7.60;;
65533;SDS011;53640;55.838;37.184;2023-03-26T20:09:47;10.85;;;7.82;;
65533;SDS011;53640;55.838;37.184;2023-03-26T20:12:14;12.73;;;7.93;;
65533;SDS011;53640;55.838;37.184;2023-03-26T20:14:41;9.02;;;7.40;;
65533;SDS011;53640;55.838;37.184;2023-03-26T20:17:14;12.77;;;7.70;;
65533;SDS011;53640;55.838;37.184;2023-03-26T20:19:43;12.05;;;8.27;;
65533;SDS011;53640;55.838;37.184;2023-03-26T20:22:13;12.02;;;7.30;;
65533;SDS011;53640;55.838;37.184;2023-03-26T20:24:42;13.75;;;7.05;;
65533;SDS011;53640;55.838;37.184;2023-03-26T20:27:12;9.52;;;7.15;;
65533;SDS011;53640;55.838;37.184;2023-03-26T20:29:39;14.00;;;7.45;;
65533;SDS011;53640;55.838;37.184;2023-03-26T20:32:41;9.70;;;6.97;;
65533;SDS011;53640;55.838;37.184;2023-03-26T20:35:00;9.13;;;7.03;;
65533;SDS011;53640;55.838;37.184;2023-03-26T20:37:26;10.50;;;6.30;;
65533;SDS011;53640;55.838;37.184;2023-03-26T20:39:53;14.43;;;6.85;;
65533;SDS011;53640;55.838;37.184;2023-03-26T20:42:23;8.25;;;6.10;;
65533;SDS011;53640;55.838;37.184;2023-03-26T20:44:50;8.52;;;6.18;;
65533;SDS011;53640;55.838;37.184;2023-03-26T20:47:17;12.85;;;6.15;;
65533;SDS011;53640;55.838;37.184;2023-03-26T20:49:46;9.00;;;5.93;;
65533;SDS011;53640;55.838;37.184;2023-03-26T20:52:12;8.88;;;6.75;;
65533;SDS011;53640;55.838;37.184;2023-03-26T20:54:40;11.40;;;6.25;;
65533;SDS011;53640;55.838;37.184;2023-03-26T20:57:07;9.05;;;6.03;;
65533;SDS011;53640;55.838;37.184;2023-03-26T20:59:38;8.65;;;5.97;;
65533;SDS011;53640;55.838;37.184;2023-03-26T21:02:04;7.03;;;5.38;;
65533;SDS011;53640;55.838;37.184;2023-03-26T21:04:30;7.57;;;5.47;;
65533;SDS011;53640;55.838;37.184;2023-03-26T21:07:04;8.13;;;6.30;;
65533;SDS011;53640;55.838;37.184;2023-03-26T21:09:45;10.13;;;5.63;;
65533;SDS011;53640;55.838;37.184;2023-03-26T21:12:20;8.82;;;6.28;;
65533;SDS011;53640;55.838;37.184;2023-03-26T21:14:53;8.63;;;5.55;;
65533;SDS011;53640;55.838;37.184;2023-03-26T21:29:48;5.65;;;4.78;;
65533;SDS011;53640;55.838;37.184;2023-03-26T21:32:14;5.25;;;4.20;;
65533;SDS011;53640;55.838;37.184;2023-03-26T21:34:41;7.20;;;5.00;;
65533;SDS011;53640;55.838;37.184;2023-03-26T21:37:08;4.43;;;4.03;;
65533;SDS011;53640;55.838;37.184;2023-03-26T21:39:37;7.05;;;4.85;;
65533;SDS011;53640;55.838;37.184;2023-03-26T21:42:08;6.00;;;4.72;;
65533;SDS011;53640;55.838;37.184;2023-03-26T21:44:42;8.20;;;5.28;;
65533;SDS011;53640;55.838;37.184;2023-03-26T21:53:26;7.60;;;5.25;;
65533;SDS011;53640;55.838;37.184;2023-03-26T22:08:52;10.13;;;7.20;;
65533;SDS011;53640;55.838;37.184;2023-03-26T22:11:31;10.23;;;7.50;;
65533;SDS011;53640;55.838;37.184;2023-03-26T22:14:09;13.00;;;8.45;;
65533;SDS011;53640;55.838;37.184;2023-03-26T22:16:46;11.90;;;7.85;;
65533;SDS011;53640;55.838;37.184;2023-03-26T22:19:27;10.73;;;8.05;;
65533;SDS011;53640;55.838;37.184;2023-03-26T22:22:13;12.40;;;8.40;;
65533;SDS011;53640;55.838;37.184;2023-03-26T22:24:42;11.77;;;8.43;;
65533;SDS011;53640;55.838;37.184;2023-03-26T22:27:26;12.30;;;8.77;;
65533;SDS011;53640;55.838;37.184;2023-03-26T22:30:17;13.30;;;8.75;;
65533;SDS011;53640;55.838;37.184;2023-03-26T22:32:57;14.05;;;10.10;;
65533;SDS011;53640;55.838;37.184;2023-03-26T22:36:10;12.68;;;8.88;;
65533;SDS011;53640;55.838;37.184;2023-03-26T22:39:33;13.50;;;9.02;;
65533;SDS011;53640;55.838;37.184;2023-03-26T22:42:53;10.95;;;8.32;;
65533;SDS011;53640;55.838;37.184;2023-03-26T22:45:59;11.82;;;8.77;;
65533;SDS011;53640;55.838;37.184;2023-03-26T22:49:00;10.15;;;7.70;;
65533;SDS011;53640;55.838;37.184;2023-03-26T22:52:05;12.20;;;8.15;;
65533;SDS011;53640;55.838;37.184;2023-03-26T22:54:55;13.02;;;9.05;;
65533;SDS011;53640;55.838;37.184;2023-03-26T22:58:05;11.30;;;7.82;;
65533;SDS011;53640;55.838;37.184;2023-03-26T23:01:16;13.07;;;9.07;;
65533;SDS011;53640;55.838;37.184;2023-03-26T23:07:48;13.65;;;8.80;;
65533;SDS011;53640;55.838;37.184;2023-03-26T23:10:24;10.80;;;8.00;;
65533;SDS011;53640;55.838;37.184;2023-03-26T23:12:58;11.77;;;8.00;;
65533;SDS011;53640;55.838;37.184;2023-03-26T23:15:30;9.55;;;7.47;;
65533;SDS011;53640;55.838;37.184;2023-03-26T23:22:40;10.45;;;7.70;;
65533;SDS011;53640;55.838;37.184;2023-03-26T23:48:54;9.52;;;7.18;;
65533;SDS011;53640;55.838;37.184;2023-03-26T23:51:39;11.90;;;6.47;;
65533;SDS011;53640;55.838;37.184;2023-03-26T23:54:23;6.57;;;5.63;;
65533;SDS011;53640;55.838;37.184;2023-03-26T23:57:38;8.48;;;6.50;;
